Time;durP1;ratioP1;P1;durP2;ratioP2;P2;SDS_P1;SDS_P2;PMS_P1;PMS_P2;Temp;Humidity;BMP_temperature;BMP_pressure;BME280_temperature;BME280_humidity;BME280_pressure;Samples;Min_cycle;Max_cycle;Signal;HPM_P1;HPM_P2
2023/04/22 00:02:18;;;;;;;4.43;3.27;;;11.60;99.90;;;;;;5070415;28;20188;-42
2023/04/22 00:04:47;;;;;;;3.87;3.17;;;11.60;99.90;;;;;;5053092;28;20178;-41
2023/04/22 00:07:14;;;;;;;3.70;3.30;;;11.60;99.90;;;;;;5070598;28;20182;-42
2023/04/22 00:09:40;;;;;;;4.27;3.30;;;11.60;99.90;;;;;;5071236;28;20182;-42
2023/04/22 00:12:07;;;;;;;4.13;3.60;;;11.60;99.90;;;;;;5071613;28;20202;-43
2023/04/22 00:14:34;;;;;;;4.17;3.13;;;11.60;99.90;;;;;;5091581;28;20259;-42
2023/04/22 00:16:59;;;;;;;3.63;3.33;;;11.60;99.90;;;;;;5073344;28;20188;-42
2023/04/22 00:19:25;;;;;;;3.40;3.10;;;11.60;99.90;;;;;;5053270;28;20186;-43
2023/04/22 00:21:52;;;;;;;3.90;3.43;;;11.60;99.90;;;;;;5075568;28;20229;-42
2023/04/22 00:24:18;;;;;;;3.73;3.43;;;11.50;99.90;;;;;;5071257;28;20234;-42
2023/04/22 00:26:43;;;;;;;4.07;3.67;;;11.50;99.90;;;;;;5083105;28;20209;-42
2023/04/22 00:29:09;;;;;;;5.13;3.83;;;11.50;99.90;;;;;;5053087;28;20265;-42
2023/04/22 00:31:35;;;;;;;4.60;3.73;;;11.50;99.90;;;;;;5069381;28;20196;-42
2023/04/22 00:34:01;;;;;;;6.07;3.50;;;11.40;99.90;;;;;;5070093;28;20179;-42
2023/04/22 00:36:27;;;;;;;4.50;3.73;;;11.40;99.90;;;;;;5071397;28;20184;-43
2023/04/22 00:38:53;;;;;;;3.50;3.00;;;11.40;99.90;;;;;;5052969;28;20187;-42
2023/04/22 00:41:19;;;;;;;3.63;3.30;;;11.30;99.90;;;;;;5065621;28;20251;-42
2023/04/22 00:43:45;;;;;;;3.13;2.83;;;11.10;99.90;;;;;;5071335;28;20206;-42
2023/04/22 00:46:11;;;;;;;3.90;3.60;;;11.10;99.90;;;;;;5085869;28;20219;-42
2023/04/22 00:48:37;;;;;;;6.03;3.37;;;11.00;99.90;;;;;;5071420;28;20171;-42
2023/04/22 00:51:04;;;;;;;3.73;3.20;;;11.00;99.90;;;;;;5072876;28;20242;-42
2023/04/22 00:53:30;;;;;;;4.20;3.07;;;11.00;99.90;;;;;;5069466;28;20250;-42
2023/04/22 00:55:57;;;;;;;4.50;3.03;;;11.10;99.90;;;;;;5066626;28;20215;-42
2023/04/22 00:58:26;;;;;;;3.90;3.53;;;11.00;99.90;;;;;;5054650;28;20201;-42
2023/04/22 01:00:52;;;;;;;4.80;3.17;;;11.10;99.90;;;;;;5066589;28;20201;-41
2023/04/22 01:03:19;;;;;;;3.80;3.30;;;11.00;99.90;;;;;;5089832;28;20217;-42
2023/04/22 01:05:47;;;;;;;6.37;3.40;;;11.00;99.90;;;;;;5060109;28;20253;-41
2023/04/22 01:08:13;;;;;;;3.50;3.20;;;11.00;99.90;;;;;;5069336;28;20196;-42
2023/04/22 01:10:41;;;;;;;4.07;3.50;;;11.00;99.90;;;;;;5088607;28;20739;-42
2023/04/22 01:13:08;;;;;;;3.90;3.37;;;11.00;99.90;;;;;;5077434;28;20194;-42
2023/04/22 01:15:34;;;;;;;4.37;3.70;;;11.10;99.90;;;;;;5052858;28;20179;-42
2023/04/22 01:18:01;;;;;;;4.00;3.60;;;11.10;99.90;;;;;;5083084;28;20222;-42
2023/04/22 01:20:30;;;;;;;4.80;3.93;;;11.10;99.90;;;;;;5092811;28;20292;-42
2023/04/22 01:23:01;;;;;;;4.07;3.63;;;11.10;99.90;;;;;;5085034;28;20201;-42
2023/04/22 01:25:27;;;;;;;3.77;3.37;;;11.10;99.90;;;;;;5056616;28;20179;-42
2023/04/22 01:27:55;;;;;;;4.33;3.90;;;11.00;99.90;;;;;;5056113;28;20251;-42
2023/04/22 01:30:21;;;;;;;3.43;3.13;;;10.90;99.90;;;;;;5074386;28;20303;-41
2023/04/22 01:32:47;;;;;;;6.10;3.50;;;10.80;99.90;;;;;;5081699;28;20186;-42
2023/04/22 01:35:13;;;;;;;4.70;3.50;;;10.80;99.90;;;;;;5093381;28;20258;-42
2023/04/22 01:37:39;;;;;;;7.00;4.00;;;10.70;99.90;;;;;;5086115;28;20180;-42
2023/04/22 01:40:06;;;;;;;4.90;3.33;;;10.70;99.90;;;;;;5056407;28;20232;-42
2023/04/22 01:42:32;;;;;;;4.33;3.70;;;10.70;99.90;;;;;;5059960;28;20589;-42
2023/04/22 01:44:58;;;;;;;5.37;4.40;;;10.60;99.90;;;;;;5073042;28;20178;-42
2023/04/22 01:47:26;;;;;;;4.27;3.80;;;10.60;99.90;;;;;;5077347;28;20183;-42
2023/04/22 01:49:52;;;;;;;3.60;3.30;;;10.50;99.90;;;;;;5076270;28;20173;-42
2023/04/22 01:52:18;;;;;;;4.53;3.67;;;10.60;99.90;;;;;;5072251;28;20207;-41
2023/04/22 01:54:44;;;;;;;4.90;4.10;;;10.60;99.90;;;;;;5069549;28;20176;-41
2023/04/22 01:57:12;;;;;;;4.50;4.10;;;10.60;99.90;;;;;;5050841;28;20189;-42
2023/04/22 01:59:39;;;;;;;6.90;3.90;;;10.60;99.90;;;;;;5055542;28;20216;-40
2023/04/22 02:02:05;;;;;;;4.87;3.57;;;10.60;99.90;;;;;;5072494;28;20281;-42
2023/04/22 02:04:31;;;;;;;4.20;3.60;;;10.60;99.90;;;;;;5087555;28;20306;-40
2023/04/22 02:06:57;;;;;;;6.77;3.80;;;10.60;99.90;;;;;;5092235;28;20265;-42
2023/04/22 02:09:24;;;;;;;5.07;4.00;;;10.50;99.90;;;;;;5093711;28;20267;-42
2023/04/22 02:11:49;;;;;;;4.47;3.30;;;10.50;99.90;;;;;;5088005;28;20196;-42
2023/04/22 02:14:15;;;;;;;5.00;4.43;;;10.50;99.90;;;;;;5055722;28;20196;-42
2023/04/22 02:16:41;;;;;;;5.27;4.27;;;10.50;99.90;;;;;;5057407;28;20241;-41
2023/04/22 02:19:07;;;;;;;7.90;4.20;;;10.50;99.90;;;;;;5075509;28;20253;-42
2023/04/22 02:21:33;;;;;;;5.03;4.00;;;10.50;99.90;;;;;;5074801;28;20261;-42
2023/04/22 02:23:59;;;;;;;4.33;3.90;;;10.50;99.90;;;;;;5075516;28;20213;-42
2023/04/22 02:26:27;;;;;;;4.63;4.03;;;10.40;99.90;;;;;;5089884;28;20173;-42
2023/04/22 02:28:53;;;;;;;4.23;3.80;;;10.40;99.90;;;;;;5071649;28;20185;-42
2023/04/22 02:31:19;;;;;;;6.50;3.80;;;10.40;99.90;;;;;;5072080;28;20233;-41
2023/04/22 02:33:45;;;;;;;4.37;3.90;;;10.30;99.90;;;;;;5089991;28;20180;-42
2023/04/22 02:36:10;;;;;;;5.57;3.93;;;10.30;99.90;;;;;;5092164;28;20216;-42
2023/04/22 02:38:37;;;;;;;6.07;4.20;;;10.30;99.90;;;;;;5058591;28;20258;-42
2023/04/22 02:41:03;;;;;;;4.57;3.90;;;10.30;99.90;;;;;;5071735;28;20209;-42
2023/04/22 02:43:29;;;;;;;5.67;4.33;;;10.20;99.90;;;;;;5069337;28;20212;-42
2023/04/22 02:45:55;;;;;;;5.13;3.93;;;10.10;99.90;;;;;;5075014;28;20176;-42
2023/04/22 02:48:21;;;;;;;4.10;3.70;;;10.10;99.90;;;;;;5055941;28;20177;-40
2023/04/22 02:50:47;;;;;;;5.77;4.03;;;10.10;99.90;;;;;;5054967;28;20219;-42
2023/04/22 02:53:13;;;;;;;7.47;4.00;;;10.10;99.90;;;;;;5089623;28;20217;-42
2023/04/22 02:55:40;;;;;;;4.17;3.73;;;10.10;99.90;;;;;;5074776;28;20192;-42
2023/04/22 02:58:07;;;;;;;5.80;3.63;;;10.00;99.90;;;;;;5074767;28;20185;-41
2023/04/22 03:00:34;;;;;;;6.50;4.20;;;10.00;99.90;;;;;;5054728;28;20199;-42
2023/04/22 03:03:00;;;;;;;4.13;3.70;;;10.00;99.90;;;;;;5082533;28;20205;-42
2023/04/22 03:05:29;;;;;;;5.50;3.87;;;10.00;99.90;;;;;;5055042;28;20173;-42
2023/04/22 03:07:55;;;;;;;4.17;3.77;;;10.00;99.90;;;;;;5071490;28;20184;-42
2023/04/22 03:10:21;;;;;;;4.40;3.97;;;9.90;99.90;;;;;;5071207;28;20197;-42
2023/04/22 03:12:47;;;;;;;3.63;3.33;;;9.90;99.90;;;;;;5083006;28;20181;-42
2023/04/22 03:15:14;;;;;;;3.80;3.50;;;9.90;99.90;;;;;;5091498;28;20204;-42
2023/04/22 03:17:40;;;;;;;4.70;3.93;;;9.90;99.90;;;;;;5056219;28;20267;-42
2023/04/22 03:20:10;;;;;;;4.70;4.07;;;9.80;99.90;;;;;;5054405;28;20192;-42
2023/04/22 03:22:36;;;;;;;4.73;3.50;;;9.80;99.90;;;;;;5087479;28;20211;-42
2023/04/22 03:25:03;;;;;;;4.40;3.80;;;9.70;99.90;;;;;;5092874;28;20177;-42
2023/04/22 03:27:30;;;;;;;4.37;3.50;;;9.60;99.90;;;;;;5058587;28;20181;-42
2023/04/22 03:29:56;;;;;;;6.50;3.67;;;9.40;99.90;;;;;;5072299;28;20193;-42
2023/04/22 03:32:21;;;;;;;5.27;4.27;;;9.40;99.90;;;;;;5084376;28;20291;-41
2023/04/22 03:34:56;;;;;;;4.50;4.00;;;9.30;99.90;;;;;;5074261;28;20179;-42
2023/04/22 03:37:22;;;;;;;4.37;3.97;;;9.40;99.90;;;;;;5072228;28;20176;-41
2023/04/22 03:39:48;;;;;;;4.27;3.87;;;9.40;99.90;;;;;;5073242;28;20191;-42
2023/04/22 03:42:17;;;;;;;5.30;3.80;;;9.40;99.90;;;;;;5054671;28;20201;-41
2023/04/22 03:44:43;;;;;;;4.17;3.77;;;9.50;99.90;;;;;;5053908;28;20177;-42
2023/04/22 03:47:09;;;;;;;6.30;4.10;;;9.60;99.90;;;;;;5071102;28;20172;-42
2023/04/22 03:49:43;;;;;;;4.43;3.83;;;9.50;99.90;;;;;;5073744;28;20181;-41
2023/04/22 03:52:08;;;;;;;4.87;4.33;;;9.50;99.90;;;;;;5106628;22;20219;-39
2023/04/22 03:54:37;;;;;;;4.23;3.83;;;9.50;99.90;;;;;;5093870;28;20179;-36
2023/04/22 03:57:04;;;;;;;4.60;4.00;;;9.50;99.90;;;;;;5104529;28;20207;-36
2023/04/22 03:59:30;;;;;;;4.60;3.90;;;9.50;99.90;;;;;;5109025;28;20240;-39
2023/04/22 04:01:55;;;;;;;6.67;4.37;;;9.50;99.90;;;;;;5093467;28;20203;-37
2023/04/22 04:04:27;;;;;;;5.33;4.50;;;9.50;99.90;;;;;;5077412;28;20200;-37
2023/04/22 04:06:57;;;;;;;5.80;4.80;;;9.50;99.90;;;;;;5084931;27;20191;-37
2023/04/22 04:09:23;;;;;;;5.77;4.70;;;9.50;99.90;;;;;;5113979;27;20175;-37
2023/04/22 04:11:50;;;;;;;9.10;4.67;;;9.50;99.90;;;;;;5097122;28;20675;-37
2023/04/22 04:14:17;;;;;;;5.00;4.00;;;9.50;99.90;;;;;;5076964;28;20176;-37
2023/04/22 04:16:47;;;;;;;4.93;4.07;;;9.50;99.90;;;;;;5093701;28;20176;-36
2023/04/22 04:19:21;;;;;;;4.93;4.17;;;9.50;99.90;;;;;;5110417;28;20183;-37
2023/04/22 04:21:47;;;;;;;4.40;4.00;;;9.50;99.90;;;;;;5109963;28;20199;-38
2023/04/22 04:24:14;;;;;;;5.47;4.40;;;9.40;99.90;;;;;;5110402;28;20207;-38
2023/04/22 04:26:44;;;;;;;6.30;4.93;;;9.50;99.90;;;;;;5110037;28;20648;-36
2023/04/22 04:29:20;;;;;;;6.53;5.70;;;9.40;99.90;;;;;;5103044;28;20168;-37
2023/04/22 04:31:54;;;;;;;7.00;5.73;;;9.40;99.90;;;;;;5076700;28;20659;-37
2023/04/22 04:34:20;;;;;;;6.77;6.03;;;9.50;99.90;;;;;;5076632;28;20207;-37
2023/04/22 04:36:46;;;;;;;6.20;5.10;;;9.50;99.90;;;;;;5094580;28;20207;-37
2023/04/22 04:39:28;;;;;;;7.57;5.57;;;9.50;99.90;;;;;;5093034;28;20232;-38
2023/04/22 04:41:57;;;;;;;7.37;5.40;;;9.50;99.90;;;;;;5085313;28;20660;-37
2023/04/22 04:44:27;;;;;;;6.20;5.57;;;9.50;99.90;;;;;;5093653;28;20207;-38
2023/04/22 04:46:56;;;;;;;5.90;5.30;;;9.50;99.90;;;;;;5091450;28;20168;-39
2023/04/22 04:49:23;;;;;;;6.67;5.00;;;9.50;99.90;;;;;;5092432;28;20757;-36
2023/04/22 04:51:58;;;;;;;5.93;5.00;;;9.50;99.90;;;;;;5076448;28;20210;-40
2023/04/22 04:54:27;;;;;;;7.13;5.30;;;9.40;99.90;;;;;;5075940;28;20263;-37
2023/04/22 04:56:56;;;;;;;6.30;5.10;;;9.40;99.90;;;;;;5092757;28;20267;-39
2023/04/22 04:59:23;;;;;;;5.60;4.70;;;9.40;99.90;;;;;;5101356;28;20175;-36
2023/04/22 05:01:49;;;;;;;6.00;4.40;;;9.40;99.90;;;;;;5109874;28;20203;-36
2023/04/22 05:04:15;;;;;;;5.13;4.60;;;9.40;99.90;;;;;;5092865;28;20195;-39
2023/04/22 05:06:42;;;;;;;5.90;4.73;;;9.40;99.90;;;;;;5089733;28;20176;-37
2023/04/22 05:09:09;;;;;;;6.33;4.60;;;9.40;99.90;;;;;;5076079;28;20186;-37
2023/04/22 05:11:35;;;;;;;6.83;5.00;;;9.40;99.90;;;;;;5076031;28;20199;-38
2023/04/22 05:14:08;;;;;;;5.73;4.37;;;9.40;99.90;;;;;;5079755;28;20292;-39
2023/04/22 05:16:39;;;;;;;5.57;4.90;;;9.40;99.90;;;;;;5092682;28;20168;-38
2023/04/22 05:19:06;;;;;;;7.30;4.87;;;9.30;99.90;;;;;;5093172;28;20221;-40
2023/04/22 05:21:34;;;;;;;5.27;4.77;;;9.30;99.90;;;;;;5109240;28;20196;-38
2023/04/22 05:24:03;;;;;;;5.80;4.63;;;9.30;99.90;;;;;;5109767;28;20202;-37
2023/04/22 05:26:30;;;;;;;5.80;4.10;;;9.20;99.90;;;;;;5109824;28;20164;-37
2023/04/22 05:28:56;;;;;;;4.37;3.97;;;9.20;99.90;;;;;;5108584;28;20179;-38
2023/04/22 05:31:22;;;;;;;7.27;4.37;;;9.30;99.90;;;;;;5092238;28;20364;-38
2023/04/22 05:33:48;;;;;;;5.30;4.80;;;9.40;99.90;;;;;;5092291;28;20176;-37
2023/04/22 05:36:14;;;;;;;5.53;4.43;;;9.40;99.90;;;;;;5109309;28;20179;-37
2023/04/22 05:38:42;;;;;;;5.57;4.93;;;9.50;99.90;;;;;;5108858;28;20172;-38
2023/04/22 05:41:07;;;;;;;4.70;4.20;;;9.70;99.90;;;;;;5092478;28;20273;-39
2023/04/22 05:43:34;;;;;;;5.77;4.40;;;9.70;99.90;;;;;;5092272;28;20196;-37
2023/04/22 05:46:14;;;;;;;6.13;4.50;;;9.80;99.90;;;;;;5077955;28;20174;-37
2023/04/22 05:48:41;;;;;;;5.57;4.97;;;9.90;99.90;;;;;;5109357;28;20183;-40
2023/04/22 05:51:15;;;;;;;6.33;4.47;;;10.00;99.90;;;;;;5092593;28;20227;-38
2023/04/22 05:53:41;;;;;;;6.00;4.60;;;10.10;99.90;;;;;;5084889;28;20210;-37
2023/04/22 05:56:07;;;;;;;5.97;4.30;;;10.10;99.90;;;;;;5092330;28;20188;-40
2023/04/22 05:58:33;;;;;;;5.17;4.20;;;10.20;99.90;;;;;;5088638;28;20181;-38
2023/04/22 06:01:05;;;;;;;4.37;3.97;;;10.20;99.90;;;;;;5102137;28;20188;-37
2023/04/22 06:04:08;;;;;;;4.63;4.23;;;10.30;99.90;;;;;;5104566;27;20203;-37
2023/04/22 06:06:35;;;;;;;5.37;4.33;;;10.50;99.90;;;;;;5112428;28;20262;-37
2023/04/22 06:09:01;;;;;;;5.73;4.80;;;10.60;99.90;;;;;;5111819;28;20177;-39
2023/04/22 06:11:28;;;;;;;5.77;4.67;;;10.70;99.90;;;;;;5113012;28;20214;-37
2023/04/22 06:13:56;;;;;;;5.97;4.57;;;10.80;99.90;;;;;;5095632;27;20186;-38
2023/04/22 06:16:22;;;;;;;5.97;4.60;;;10.90;99.90;;;;;;5111201;28;20195;-37
2023/04/22 06:18:49;;;;;;;12.00;4.50;;;10.90;99.90;;;;;;5084236;28;20173;-37
2023/04/22 06:21:15;;;;;;;4.43;3.80;;;10.90;99.90;;;;;;5112915;28;20242;-38
2023/04/22 06:23:41;;;;;;;4.93;4.23;;;10.90;99.90;;;;;;5095280;28;20205;-37
2023/04/22 06:26:07;;;;;;;5.13;4.33;;;10.90;99.90;;;;;;5114359;28;20169;-37
2023/04/22 06:28:37;;;;;;;7.57;4.53;;;11.00;99.90;;;;;;5107839;28;20177;-36
2023/04/22 06:31:09;;;;;;;4.30;3.90;;;11.00;99.90;;;;;;5091657;28;20212;-38
2023/04/22 06:33:35;;;;;;;5.87;4.67;;;11.00;99.90;;;;;;5108926;28;20181;-38
2023/04/22 06:36:01;;;;;;;4.53;4.07;;;11.10;99.90;;;;;;5112083;28;20189;-37
2023/04/22 06:38:29;;;;;;;4.60;4.20;;;11.10;99.90;;;;;;5078526;28;20983;-36
2023/04/22 06:41:16;;;;;;;5.53;4.60;;;11.10;99.90;;;;;;5106726;28;20212;-38
2023/04/22 06:43:45;;;;;;;5.43;4.27;;;11.20;99.90;;;;;;5098603;28;20193;-37
2023/04/22 06:46:10;;;;;;;5.40;4.37;;;11.20;99.90;;;;;;5095702;28;20216;-37
2023/04/22 06:48:39;;;;;;;6.50;4.33;;;11.30;99.90;;;;;;5113262;28;20195;-40
2023/04/22 06:51:34;;;;;;;6.87;4.57;;;11.30;99.90;;;;;;5090914;28;20211;-40
2023/04/22 06:54:01;;;;;;;6.40;4.43;;;11.30;99.90;;;;;;5078505;28;20177;-37
2023/04/22 06:56:27;;;;;;;4.90;4.03;;;11.40;99.90;;;;;;5078313;28;20664;-39
2023/04/22 06:58:53;;;;;;;5.63;4.53;;;11.40;99.90;;;;;;5103420;28;20190;-38
2023/04/22 07:01:19;;;;;;;6.17;4.63;;;11.50;99.90;;;;;;5094745;28;20286;-37
2023/04/22 07:03:46;;;;;;;6.47;4.60;;;11.60;99.90;;;;;;5112256;28;20270;-40
2023/04/22 07:06:13;;;;;;;4.70;4.30;;;11.60;99.90;;;;;;5078277;28;20183;-38
2023/04/22 07:08:39;;;;;;;5.83;4.27;;;11.70;99.90;;;;;;5111860;28;20180;-39
2023/04/22 07:11:06;;;;;;;6.50;5.07;;;11.80;99.90;;;;;;5095013;28;20285;-41
2023/04/22 07:13:50;;;;;;;6.07;4.87;;;11.90;99.90;;;;;;5112532;28;20194;-37
2023/04/22 07:16:15;;;;;;;5.97;4.60;;;12.00;99.90;;;;;;5095722;28;20182;-38
2023/04/22 07:18:41;;;;;;;6.43;4.80;;;12.00;99.90;;;;;;5095037;28;20231;-39
2023/04/22 07:21:07;;;;;;;6.70;4.73;;;12.00;99.90;;;;;;5112907;28;20207;-37
2023/04/22 07:23:33;;;;;;;4.73;4.33;;;12.20;99.90;;;;;;5095131;28;20210;-37
2023/04/22 07:25:59;;;;;;;5.33;4.57;;;12.20;99.90;;;;;;5112097;28;20179;-36
2023/04/22 07:28:24;;;;;;;6.50;5.07;;;12.30;99.90;;;;;;5086511;28;20183;-38
2023/04/22 07:30:50;;;;;;;7.80;5.73;;;12.30;99.90;;;;;;5111476;28;20195;-40
2023/04/22 07:33:16;;;;;;;8.53;5.57;;;12.30;99.90;;;;;;5111490;28;20184;-38
2023/04/22 07:35:42;;;;;;;5.87;5.10;;;12.30;99.90;;;;;;5111596;28;20180;-37
2023/04/22 07:38:08;;;;;;;6.03;5.43;;;12.30;99.90;;;;;;5077592;28;20183;-36
2023/04/22 07:40:33;;;;;;;16.47;10.50;;;12.40;99.90;;;;;;5112617;28;20215;-36
2023/04/22 07:43:00;;;;;;;7.97;6.00;;;12.40;99.90;;;;;;5112758;28;20206;-37
2023/04/22 07:45:25;;;;;;;7.97;5.93;;;12.40;99.90;;;;;;5112994;28;20180;-41
2023/04/22 07:47:51;;;;;;;7.37;6.10;;;12.50;99.90;;;;;;5111057;28;20236;-37
2023/04/22 07:50:17;;;;;;;7.33;5.63;;;12.50;99.90;;;;;;5111099;28;20179;-38
2023/04/22 07:52:43;;;;;;;7.30;5.80;;;12.60;99.90;;;;;;5112688;28;20272;-38
2023/04/22 07:55:09;;;;;;;9.47;6.20;;;12.70;99.90;;;;;;5077253;28;20209;-37
2023/04/22 07:57:37;;;;;;;5.80;5.20;;;12.80;99.90;;;;;;5111360;28;20195;-37
2023/04/22 08:00:05;;;;;;;5.67;5.17;;;13.00;99.90;;;;;;5097876;28;20188;-37
2023/04/22 08:02:37;;;;;;;5.30;4.80;;;13.20;99.90;;;;;;5092046;28;20200;-37
2023/04/22 08:05:03;;;;;;;7.27;5.17;;;13.40;99.90;;;;;;5090488;28;20176;-36
2023/04/22 08:07:31;;;;;;;5.13;4.63;;;13.70;99.90;;;;;;5090649;28;20172;-37
2023/04/22 08:09:56;;;;;;;7.60;4.57;;;13.90;99.90;;;;;;5073129;28;20218;-39
2023/04/22 08:12:22;;;;;;;8.30;4.50;;;14.10;99.90;;;;;;5073541;28;20216;-37
2023/04/22 08:14:50;;;;;;;7.77;4.97;;;14.30;99.90;;;;;;5090605;28;20644;-38
2023/04/22 08:17:20;;;;;;;7.77;4.50;;;14.30;99.90;;;;;;5056554;28;20184;-37
2023/04/22 08:19:48;;;;;;;5.43;4.83;;;14.50;99.90;;;;;;5090424;28;20704;-43
2023/04/22 08:22:16;;;;;;;8.23;5.03;;;14.70;99.90;;;;;;5092147;28;20193;-40
2023/04/22 08:24:42;;;;;;;7.47;4.80;;;14.70;99.90;;;;;;5093471;28;20204;-36
2023/04/22 08:27:08;;;;;;;5.50;4.33;;;14.80;99.90;;;;;;5111909;28;20183;-38
2023/04/22 08:29:34;;;;;;;4.83;4.33;;;15.00;99.90;;;;;;5103308;28;20640;-37
2023/04/22 08:32:00;;;;;;;4.93;4.30;;;15.20;99.90;;;;;;5111548;28;20290;-38
2023/04/22 08:34:26;;;;;;;6.13;4.60;;;15.40;99.90;;;;;;5112171;28;20175;-38
2023/04/22 08:36:52;;;;;;;4.70;4.10;;;15.50;99.90;;;;;;5110941;28;20186;-38
2023/04/22 08:39:20;;;;;;;4.80;3.70;;;15.60;99.90;;;;;;5111667;28;20168;-38
2023/04/22 08:41:50;;;;;;;5.23;3.47;;;15.80;99.90;;;;;;5110001;28;20203;-38
2023/04/22 08:44:18;;;;;;;4.33;3.93;;;15.90;99.90;;;;;;5110220;28;20199;-38
2023/04/22 08:46:47;;;;;;;5.37;4.10;;;16.00;99.90;;;;;;5110647;28;20176;-37
2023/04/22 08:49:14;;;;;;;4.27;3.70;;;16.00;99.90;;;;;;5076568;28;20187;-37
2023/04/22 08:51:42;;;;;;;4.23;3.63;;;16.10;99.90;;;;;;5111376;28;20243;-41
2023/04/22 08:54:09;;;;;;;4.83;4.37;;;16.30;99.90;;;;;;5110412;28;20237;-37
2023/04/22 08:56:37;;;;;;;4.63;3.87;;;16.40;99.90;;;;;;5076327;28;20188;-37
2023/04/22 08:59:06;;;;;;;3.97;3.58;;;16.70;99.90;;;;;;5093166;28;20180;-39
2023/04/22 09:01:34;;;;;;;4.03;3.63;;;16.80;99.90;;;;;;5109777;28;20675;-39
2023/04/22 09:04:01;;;;;;;4.22;3.15;;;17.00;99.90;;;;;;5093122;28;20227;-38
2023/04/22 09:06:28;;;;;;;2.88;2.67;;;17.10;99.90;;;;;;5111061;28;20245;-37
2023/04/22 09:08:57;;;;;;;5.72;3.20;;;17.10;99.90;;;;;;5109777;28;20176;-38
2023/04/22 09:11:26;;;;;;;3.17;2.88;;;17.10;99.90;;;;;;5092925;28;20204;-41
2023/04/22 09:13:53;;;;;;;4.18;3.13;;;17.20;99.90;;;;;;5111593;28;20244;-37
2023/04/22 09:16:20;;;;;;;3.42;2.90;;;17.20;99.90;;;;;;5093014;28;20270;-39
2023/04/22 09:18:46;;;;;;;4.35;2.50;;;17.00;99.90;;;;;;5109967;28;20180;-39
2023/04/22 09:21:14;;;;;;;2.95;2.65;;;17.10;99.90;;;;;;5076131;28;20241;-38
2023/04/22 09:23:50;;;;;;;2.92;2.63;;;17.40;99.90;;;;;;5076648;28;20255;-40
2023/04/22 09:26:21;;;;;;;3.00;2.33;;;17.60;99.90;;;;;;5109404;28;20236;-38
2023/04/22 09:28:54;;;;;;;2.90;2.70;;;17.70;99.90;;;;;;5084298;28;20224;-39
2023/04/22 09:31:21;;;;;;;3.08;2.25;;;17.80;99.90;;;;;;5111421;28;20259;-38
2023/04/22 09:33:56;;;;;;;2.60;2.40;;;17.90;99.90;;;;;;5093094;28;20275;-40
2023/04/22 09:36:25;;;;;;;2.50;2.30;;;18.10;99.90;;;;;;5110211;28;20179;-38
2023/04/22 09:38:52;;;;;;;2.50;2.30;;;18.20;99.90;;;;;;5114380;28;20184;-38
2023/04/22 09:41:29;;;;;;;2.47;2.25;;;18.50;99.90;;;;;;5115547;28;20195;-40
2023/04/22 09:43:59;;;;;;;2.88;2.10;;;18.60;99.90;;;;;;5113125;28;20203;-39
2023/04/22 09:46:27;;;;;;;2.50;2.30;;;18.60;99.90;;;;;;5096930;28;20183;-38
2023/04/22 09:48:58;;;;;;;2.70;2.13;;;18.80;99.90;;;;;;5114010;27;20168;-40
2023/04/22 10:11:17;;;;;;;2.20;2.00;;;19.90;99.90;;;;;;5053227;28;20224;-91
2023/04/22 10:14:28;;;;;;;3.30;2.25;;;20.10;99.90;;;;;;5044566;28;20228;-91
2023/04/22 10:16:59;;;;;;;3.15;2.35;;;20.10;99.90;;;;;;5037461;28;20205;-90
2023/04/22 10:20:19;;;;;;;2.75;2.20;;;19.90;99.90;;;;;;5021484;28;20232;-90
2023/04/22 10:22:46;;;;;;;3.15;2.20;;;19.90;99.90;;;;;;5042944;28;20275;-90
2023/04/22 10:25:22;;;;;;;2.40;1.88;;;19.90;99.90;;;;;;5074032;28;20181;-90
2023/04/22 10:28:08;;;;;;;3.92;2.30;;;20.10;99.90;;;;;;5070625;28;20193;-90
2023/04/22 10:30:36;;;;;;;3.08;2.28;;;20.10;99.90;;;;;;5054255;28;20178;-90
2023/04/22 10:33:26;;;;;;;2.25;1.90;;;20.20;99.90;;;;;;5057072;28;20232;-91
2023/04/22 10:36:13;;;;;;;2.50;1.88;;;20.20;99.90;;;;;;5036724;28;20188;-90
2023/04/22 10:39:00;;;;;;;2.78;2.03;;;20.30;99.90;;;;;;5040410;28;20205;-90
2023/04/22 10:41:32;;;;;;;2.17;1.98;;;20.50;99.90;;;;;;5046517;28;20250;-90
2023/04/22 10:44:06;;;;;;;1.92;1.70;;;20.60;99.90;;;;;;5056670;28;20197;-90
2023/04/22 10:46:51;;;;;;;1.77;1.67;;;20.60;99.90;;;;;;5056711;28;20198;-91
2023/04/22 10:53:54;;;;;;;2.10;1.90;;;20.90;99.90;;;;;;5023443;28;20354;-90
2023/04/22 10:59:57;;;;;;;2.58;1.80;;;21.20;99.90;;;;;;5011070;28;20265;-90
2023/04/22 11:02:24;;;;;;;2.47;1.95;;;21.30;99.90;;;;;;5015083;28;20187;-90
2023/04/22 11:04:53;;;;;;;3.17;2.05;;;21.30;99.90;;;;;;5031334;28;20215;-90
2023/04/22 11:07:25;;;;;;;3.05;2.13;;;21.20;99.90;;;;;;5032048;28;20225;-90
2023/04/22 11:10:06;;;;;;;3.22;2.15;;;21.20;99.90;;;;;;5031683;28;20179;-91
2023/04/22 11:12:34;;;;;;;2.45;2.20;;;21.30;99.90;;;;;;5047234;28;20209;-90
2023/04/22 11:15:10;;;;;;;2.00;1.73;;;21.40;99.90;;;;;;5034691;28;20192;-91
2023/04/22 11:17:38;;;;;;;4.10;1.65;;;21.60;99.90;;;;;;5034527;28;20193;-90
2023/04/22 11:20:06;;;;;;;2.05;1.35;;;21.70;99.90;;;;;;5034353;28;20192;-91
2023/04/22 11:22:41;;;;;;;2.33;1.58;;;21.90;99.90;;;;;;5034415;28;20178;-90
2023/04/22 11:25:10;;;;;;;2.40;1.60;;;22.20;99.90;;;;;;5051860;28;20204;-90
2023/04/22 11:27:44;;;;;;;1.80;1.52;;;22.30;99.90;;;;;;5072845;28;20201;-90
2023/04/22 11:30:12;;;;;;;3.08;1.73;;;22.40;99.90;;;;;;5024205;28;20232;-91
2023/04/22 11:32:41;;;;;;;2.40;1.60;;;22.50;99.90;;;;;;5018940;28;20178;-91
2023/04/22 11:35:11;;;;;;;1.63;1.52;;;22.80;99.90;;;;;;5035722;28;20174;-90
2023/04/22 11:37:51;;;;;;;2.13;1.73;;;22.90;99.90;;;;;;5024201;28;20276;-89
2023/04/22 11:40:20;;;;;;;1.50;1.40;;;22.80;99.90;;;;;;5054708;28;20181;-90
2023/04/22 11:42:48;;;;;;;1.63;1.52;;;22.70;99.90;;;;;;5054487;28;20178;-90
2023/04/22 11:45:15;;;;;;;2.55;1.50;;;22.70;99.90;;;;;;5053304;28;20173;-91
2023/04/22 11:47:42;;;;;;;2.95;1.60;;;22.70;99.90;;;;;;5036933;28;20200;-90
2023/04/22 11:50:12;;;;;;;2.88;1.80;;;22.60;99.90;;;;;;5035076;28;20178;-90
2023/04/22 11:52:56;;;;;;;2.00;1.38;;;22.80;99.90;;;;;;5035441;28;20198;-91
2023/04/22 11:55:29;;;;;;;4.05;1.65;;;23.10;99.90;;;;;;5048751;28;20170;-91
2023/04/22 11:58:15;;;;;;;2.75;1.70;;;23.20;99.90;;;;;;5037646;28;20204;-90
2023/04/22 12:00:43;;;;;;;3.45;1.75;;;23.30;99.90;;;;;;5036494;28;20201;-90
2023/04/22 12:03:17;;;;;;;1.65;1.50;;;23.30;99.90;;;;;;5055142;28;20201;-90
2023/04/22 12:05:48;;;;;;;4.07;1.90;;;23.30;99.90;;;;;;5049909;28;20177;-90
2023/04/22 12:08:20;;;;;;;2.33;1.70;;;23.50;99.90;;;;;;5054686;28;20197;-90
2023/04/22 12:10:53;;;;;;;2.95;1.55;;;23.80;99.90;;;;;;5072376;28;20246;-91
2023/04/22 12:13:21;;;;;;;2.50;1.50;;;24.00;99.90;;;;;;5072545;28;20177;-91
2023/04/22 12:15:47;;;;;;;2.17;1.52;;;24.10;99.90;;;;;;5038133;28;20208;-91
2023/04/22 12:18:13;;;;;;;1.90;1.63;;;24.10;99.90;;;;;;5037801;28;20204;-92
2023/04/22 12:20:40;;;;;;;3.13;1.98;;;24.30;99.90;;;;;;5054887;28;20181;-92
2023/04/22 12:23:14;;;;;;;2.75;1.70;;;24.50;99.90;;;;;;5060853;28;20204;-92
2023/04/22 12:25:41;;;;;;;2.97;1.58;;;24.60;99.90;;;;;;5057809;28;20184;-91
2023/04/22 12:28:08;;;;;;;2.28;1.65;;;24.50;99.90;;;;;;5041946;28;20197;-91
2023/04/22 12:30:34;;;;;;;2.08;1.80;;;24.30;99.90;;;;;;5024620;28;20268;-91
2023/04/22 12:33:00;;;;;;;2.05;1.50;;;24.20;99.90;;;;;;5037840;28;20275;-91
2023/04/22 12:35:29;;;;;;;4.85;1.80;;;24.10;99.90;;;;;;5054806;28;20185;-90
2023/04/22 12:37:55;;;;;;;3.88;1.70;;;24.00;99.90;;;;;;5053979;28;20205;-91
2023/04/22 12:40:22;;;;;;;2.17;1.60;;;23.80;99.90;;;;;;5054922;28;20192;-91
2023/04/22 12:42:48;;;;;;;2.90;1.60;;;23.90;99.90;;;;;;5057120;28;20256;-91
2023/04/22 12:45:15;;;;;;;3.13;1.70;;;24.00;99.90;;;;;;5020944;28;20273;-87
2023/04/22 12:47:41;;;;;;;1.83;1.52;;;24.00;99.90;;;;;;5028913;28;20193;-93
2023/04/22 12:50:07;;;;;;;1.70;1.40;;;24.00;99.90;;;;;;5038706;28;20181;-86
2023/04/22 12:52:34;;;;;;;5.28;1.63;;;23.90;99.90;;;;;;5054153;28;20181;-86
2023/04/22 12:55:00;;;;;;;2.33;1.60;;;23.70;99.90;;;;;;5054276;28;20173;-86
2023/04/22 12:57:26;;;;;;;2.65;1.80;;;23.50;99.90;;;;;;5037442;28;20688;-92
2023/04/22 12:59:52;;;;;;;15.77;12.05;;;23.00;99.90;;;;;;5054614;28;20180;-86
2023/04/22 13:02:18;;;;;;;4.57;3.78;;;22.80;99.90;;;;;;5054941;28;20173;-88
2023/04/22 13:05:56;;;;;;;3.65;2.00;;;22.70;99.90;;;;;;5057185;28;20201;-90
2023/04/22 13:16:33;;;;;;;2.47;1.77;;;22.60;99.90;;;;;;4956037;29;20680;-91
2023/04/22 13:19:01;;;;;;;1.60;1.50;;;23.10;99.90;;;;;;5027428;28;20193;-91
2023/04/22 13:21:28;;;;;;;2.33;1.80;;;23.30;99.90;;;;;;5058623;28;20184;-90
2023/04/22 13:23:54;;;;;;;1.95;1.70;;;23.30;99.90;;;;;;5054942;28;20292;-91
2023/04/22 13:26:21;;;;;;;4.32;2.03;;;23.20;99.90;;;;;;5039317;28;20266;-91
2023/04/22 13:28:47;;;;;;;3.05;2.00;;;23.10;99.90;;;;;;5054696;28;20193;-91
2023/04/22 13:31:15;;;;;;;3.10;1.80;;;22.90;99.90;;;;;;5037533;28;20166;-91
2023/04/22 13:33:42;;;;;;;3.30;2.03;;;22.70;99.90;;;;;;5038050;28;20182;-91